createdAt,value
2022-09-01T00:00:01.049Z,23.30
2022-09-01T00:01:05.945Z,23.30
2022-09-01T00:02:10.155Z,23.30
2022-09-01T00:03:12.553Z,23.30
2022-09-01T00:04:16.065Z,23.30
2022-09-01T00:05:19.069Z,23.30
2022-09-01T00:06:23.826Z,23.30
2022-09-01T00:07:27.151Z,23.30
2022-09-01T00:08:29.538Z,23.30
2022-09-01T00:09:32.114Z,23.10
2022-09-01T00:10:34.412Z,23.20
2022-09-01T00:11:37.900Z,23.20
2022-09-01T00:12:40.333Z,23.20
2022-09-01T00:13:42.631Z,23.30
2022-09-01T00:14:44.806Z,23.20
2022-09-01T00:15:47.228Z,23.20
2022-09-01T00:16:51.743Z,23.20
2022-09-01T00:17:54.078Z,23.10
2022-09-01T00:18:56.422Z,23.10
2022-09-01T00:19:58.881Z,23.10
2022-09-01T00:21:01.107Z,23.10
2022-09-01T00:22:04.037Z,23.00
2022-09-01T00:23:06.230Z,23.00
2022-09-01T00:24:08.897Z,22.90
2022-09-01T00:25:11.424Z,22.90
2022-09-01T00:26:13.725Z,23.00
2022-09-01T00:27:16.145Z,22.90
2022-09-01T00:28:18.497Z,22.80
2022-09-01T00:29:21.131Z,22.80
2022-09-01T00:30:23.351Z,22.80
2022-09-01T00:31:25.906Z,22.80
2022-09-01T00:32:28.581Z,22.70
2022-09-01T00:33:30.788Z,22.80
2022-09-01T00:34:33.094Z,22.70
2022-09-01T00:35:37.202Z,22.70
2022-09-01T00:36:39.803Z,22.80
2022-09-01T00:37:42.141Z,22.80
2022-09-01T00:38:44.550Z,22.70
2022-09-01T00:39:46.882Z,22.60
2022-09-01T00:40:50.110Z,22.60
2022-09-01T00:41:52.494Z,22.50
2022-09-01T00:42:55.086Z,22.40
2022-09-01T00:43:59.275Z,22.30
2022-09-01T00:45:01.604Z,22.30
2022-09-01T00:46:14.972Z,22.20
2022-09-01T00:47:20.794Z,22.30
2022-09-01T00:48:25.006Z,22.30
2022-09-01T00:49:35.206Z,22.30
2022-09-01T00:50:37.931Z,22.30
2022-09-01T00:51:42.121Z,22.20
2022-09-01T00:52:46.303Z,22.20
2022-09-01T00:53:49.507Z,22.20
2022-09-01T00:54:54.568Z,22.20
2022-09-01T00:55:57.419Z,22.20
2022-09-01T00:57:00.249Z,22.30
2022-09-01T00:58:03.549Z,22.30
2022-09-01T00:59:06.998Z,22.30
2022-09-01T01:00:21.085Z,22.30
2022-09-01T01:01:23.997Z,22.30
2022-09-01T01:02:26.440Z,22.30
2022-09-01T01:03:30.232Z,22.20
2022-09-01T01:04:32.499Z,22.20
2022-09-01T01:05:37.118Z,22.20
2022-09-01T01:06:40.877Z,22.20
2022-09-01T01:07:45.961Z,22.20
2022-09-01T01:08:57.845Z,22.10
2022-09-01T01:10:00.148Z,22.10
2022-09-01T01:11:03.569Z,22.10
2022-09-01T01:12:13.663Z,22.10
2022-09-01T01:13:17.047Z,22.00
2022-09-01T01:14:20.105Z,22.00
2022-09-01T01:15:22.304Z,22.00
2022-09-01T01:16:27.331Z,22.00
2022-09-01T01:17:29.638Z,22.10
2022-09-01T01:18:31.831Z,22.10
2022-09-01T01:20:03.481Z,22.00
2022-09-01T01:21:25.310Z,22.00
2022-09-01T01:22:55.025Z,22.00
2022-09-01T01:24:11.136Z,21.90
2022-09-01T01:25:13.602Z,21.90
2022-09-01T01:26:15.818Z,21.90
2022-09-01T01:27:21.753Z,21.90
2022-09-01T01:28:26.969Z,21.90
2022-09-01T01:29:33.279Z,21.90
2022-09-01T01:30:37.019Z,21.90
2022-09-01T01:31:39.549Z,21.90
2022-09-01T01:32:43.076Z,21.80
2022-09-01T01:33:46.737Z,21.80
2022-09-01T01:34:49.174Z,21.80
2022-09-01T01:35:52.584Z,21.70
2022-09-01T01:36:55.156Z,21.70
2022-09-01T01:37:57.821Z,21.60
2022-09-01T01:39:03.262Z,21.60
2022-09-01T01:40:07.001Z,21.50
2022-09-01T01:41:10.332Z,21.50
2022-09-01T01:42:12.782Z,21.50
2022-09-01T01:43:23.074Z,21.60
2022-09-01T01:44:28.231Z,21.60
2022-09-01T01:45:33.917Z,21.60
2022-09-01T01:46:37.213Z,21.40
2022-09-01T01:47:39.423Z,21.50
2022-09-01T01:48:42.875Z,21.50
2022-09-01T01:49:45.198Z,21.50
2022-09-01T01:50:49.272Z,21.40
2022-09-01T01:51:55.933Z,21.40
2022-09-01T01:53:01.310Z,21.40
2022-09-01T01:54:05.730Z,21.40
2022-09-01T01:55:12.463Z,21.40
2022-09-01T01:56:20.113Z,21.40
2022-09-01T01:57:22.316Z,21.40
2022-09-01T01:58:25.436Z,21.40
2022-09-01T01:59:29.559Z,21.30
2022-09-01T02:00:34.548Z,21.40
2022-09-01T02:01:39.250Z,21.30
2022-09-01T02:02:41.778Z,21.30
2022-09-01T02:03:44.086Z,21.30
2022-09-01T02:04:46.237Z,21.30
2022-09-01T02:05:50.564Z,21.30
2022-09-01T02:06:55.854Z,21.30
2022-09-01T02:08:00.025Z,21.40
2022-09-01T02:09:04.181Z,21.30
2022-09-01T02:10:06.776Z,21.30
2022-09-01T02:11:09.200Z,21.40
2022-09-01T02:12:11.973Z,21.40
2022-09-01T02:13:20.885Z,21.30
2022-09-01T02:14:23.565Z,21.40
2022-09-01T02:15:26.947Z,21.30
2022-09-01T02:16:30.234Z,21.40
2022-09-01T02:17:32.610Z,21.50
2022-09-01T02:18:41.961Z,21.50
2022-09-01T02:19:44.173Z,21.50
2022-09-01T02:20:47.664Z,21.40
2022-09-01T02:21:54.286Z,21.50
2022-09-01T02:22:56.499Z,21.50
2022-09-01T02:24:01.071Z,21.60
2022-09-01T02:25:06.257Z,21.60
2022-09-01T02:26:18.541Z,21.60
2022-09-01T02:27:26.829Z,21.70
2022-09-01T02:28:31.993Z,21.70
2022-09-01T02:29:37.097Z,21.80
2022-09-01T02:30:46.731Z,21.90
2022-09-01T02:31:50.237Z,21.90
2022-09-01T02:32:52.457Z,22.00
2022-09-01T02:33:54.742Z,22.10
2022-09-01T02:35:01.117Z,22.10
2022-09-01T02:36:08.356Z,22.20
2022-09-01T02:37:10.649Z,22.30
2022-09-01T02:38:14.030Z,22.30
2022-09-01T02:39:42.550Z,22.30
2022-09-01T02:40:45.409Z,22.40
2022-09-01T02:41:47.764Z,22.50
2022-09-01T02:42:53.077Z,22.50
2022-09-01T02:43:55.398Z,22.50
2022-09-01T02:44:58.615Z,22.50
2022-09-01T02:46:02.187Z,22.50
2022-09-01T02:47:09.763Z,22.50
2022-09-01T02:48:12.009Z,22.40
2022-09-01T02:49:19.736Z,22.50
2022-09-01T02:50:22.498Z,22.50
2022-09-01T02:51:27.649Z,22.50
2022-09-01T02:52:35.468Z,22.50
2022-09-01T02:53:39.388Z,22.50
2022-09-01T02:54:46.984Z,22.50
2022-09-01T02:55:49.223Z,22.50
2022-09-01T02:56:54.462Z,22.50
2022-09-01T02:57:58.555Z,22.50
2022-09-01T02:59:03.004Z,22.60
2022-09-01T03:00:20.575Z,22.50
2022-09-01T03:01:25.436Z,22.50
2022-09-01T03:02:28.808Z,22.50
2022-09-01T03:03:31.116Z,22.50
2022-09-01T03:04:35.102Z,22.50
2022-09-01T03:05:39.151Z,22.50
2022-09-01T03:06:41.553Z,22.50
2022-09-01T03:07:43.986Z,22.50
2022-09-01T03:08:46.781Z,22.50
2022-09-01T03:09:49.072Z,22.50
2022-09-01T03:10:52.047Z,22.40
2022-09-01T03:11:54.562Z,22.40
2022-09-01T03:13:02.311Z,22.40
2022-09-01T03:14:05.583Z,22.40
2022-09-01T03:15:08.973Z,22.40
2022-09-01T03:16:16.275Z,22.40
2022-09-01T03:17:19.572Z,22.40
2022-09-01T03:18:21.966Z,22.40
2022-09-01T03:19:24.288Z,22.40
2022-09-01T03:20:28.146Z,22.40
2022-09-01T03:21:32.203Z,22.40
2022-09-01T03:22:34.459Z,22.50
2022-09-01T03:23:38.083Z,22.40
2022-09-01T03:24:40.428Z,22.40
2022-09-01T03:25:43.736Z,22.50
2022-09-01T03:26:50.045Z,22.50
2022-09-01T03:27:53.232Z,22.50
2022-09-01T03:28:55.643Z,22.50
2022-09-01T03:29:58.112Z,22.50
2022-09-01T03:31:00.528Z,22.50
2022-09-01T03:32:03.227Z,22.50
2022-09-01T03:33:05.957Z,22.50
2022-09-01T03:34:10.980Z,22.50
2022-09-01T03:35:17.893Z,22.50
2022-09-01T03:36:20.297Z,22.50
2022-09-01T03:37:23.356Z,22.50
2022-09-01T03:38:29.540Z,22.50
2022-09-01T03:39:32.001Z,22.50
2022-09-01T03:40:36.695Z,22.50
2022-09-01T03:41:38.986Z,22.50
2022-09-01T03:42:41.725Z,22.50
2022-09-01T03:43:45.828Z,22.50
2022-09-01T03:44:49.740Z,22.50
2022-09-01T03:45:52.193Z,22.40
2022-09-01T03:46:54.787Z,22.40
2022-09-01T03:47:57.204Z,22.40
2022-09-01T03:49:02.018Z,22.30
2022-09-01T03:50:07.344Z,22.30
2022-09-01T03:51:09.664Z,22.20
2022-09-01T03:52:12.230Z,22.10
2022-09-01T03:53:15.639Z,22.10
2022-09-01T03:54:18.206Z,22.00
2022-09-01T03:55:26.754Z,21.90
2022-09-01T03:56:29.516Z,21.90
2022-09-01T03:57:32.510Z,21.90
2022-09-01T03:58:35.378Z,22.00
2022-09-01T03:59:43.282Z,22.00
2022-09-01T04:00:49.245Z,22.10
2022-09-01T04:01:51.861Z,22.10
2022-09-01T04:02:57.535Z,22.00
2022-09-01T04:04:01.582Z,22.10
2022-09-01T04:05:08.546Z,22.10
2022-09-01T04:06:10.902Z,22.20
2022-09-01T04:07:18.918Z,22.20
2022-09-01T04:08:25.531Z,22.20
2022-09-01T04:09:27.729Z,22.20
2022-09-01T04:10:32.536Z,22.20
2022-09-01T04:11:35.108Z,22.20
2022-09-01T04:12:38.649Z,22.10
2022-09-01T04:13:41.476Z,22.20
2022-09-01T04:14:43.838Z,22.20
2022-09-01T04:15:46.074Z,22.20
2022-09-01T04:17:06.931Z,22.20
2022-09-01T04:18:10.622Z,22.20
2022-09-01T04:19:20.474Z,22.20
2022-09-01T04:20:23.506Z,22.20
2022-09-01T04:21:26.244Z,22.20
2022-09-01T04:22:31.914Z,22.10
2022-09-01T04:23:34.983Z,22.10
2022-09-01T04:24:45.583Z,22.10
2022-09-01T04:25:50.344Z,22.10
2022-09-01T04:26:54.511Z,22.10
2022-09-01T04:27:57.230Z,22.00
2022-09-01T04:29:01.005Z,22.10
2022-09-01T04:30:03.779Z,22.10
2022-09-01T04:31:10.613Z,22.00
2022-09-01T04:32:13.553Z,21.90
2022-09-01T04:33:26.487Z,21.80
2022-09-01T04:34:30.837Z,21.80
2022-09-01T04:35:38.101Z,21.80
2022-09-01T04:36:42.116Z,21.70
2022-09-01T04:37:47.560Z,21.80
2022-09-01T04:38:54.558Z,21.90
2022-09-01T04:39:57.810Z,21.80
2022-09-01T04:41:10.183Z,21.90
2022-09-01T04:42:12.706Z,21.90
2022-09-01T04:43:15.151Z,22.00
2022-09-01T04:44:19.002Z,22.00
2022-09-01T04:45:27.351Z,22.00
2022-09-01T04:46:31.175Z,22.00
2022-09-01T04:47:35.991Z,22.00
2022-09-01T04:48:46.017Z,21.90
2022-09-01T04:49:49.674Z,22.00
2022-09-01T04:50:53.834Z,22.00
2022-09-01T04:52:01.586Z,22.00
2022-09-01T04:53:05.959Z,22.00
2022-09-01T04:54:14.213Z,22.00
2022-09-01T04:55:18.263Z,22.00
2022-09-01T04:56:22.899Z,21.90
2022-09-01T04:57:39.768Z,21.80
2022-09-01T04:58:42.057Z,21.80
2022-09-01T04:59:44.278Z,21.80
2022-09-01T05:00:52.344Z,21.90
2022-09-01T05:01:57.567Z,21.90
2022-09-01T05:03:04.677Z,22.00
2022-09-01T05:04:33.870Z,22.00
2022-09-01T05:05:43.002Z,22.10
2022-09-01T05:06:49.271Z,22.00
2022-09-01T05:07:52.758Z,21.90
2022-09-01T05:08:57.941Z,21.90
2022-09-01T05:10:15.467Z,21.90
2022-09-01T05:11:38.778Z,21.90
2022-09-01T05:12:52.304Z,21.90
2022-09-01T05:13:57.565Z,21.90
2022-09-01T05:15:02.056Z,21.90
2022-09-01T05:16:06.340Z,21.90
2022-09-01T05:17:10.786Z,21.90
2022-09-01T05:18:23.262Z,21.80
2022-09-01T05:19:28.971Z,21.90
2022-09-01T05:20:35.211Z,21.80
2022-09-01T05:21:38.644Z,21.80
2022-09-01T05:22:41.031Z,21.70
2022-09-01T05:23:44.426Z,21.70
2022-09-01T05:24:46.809Z,21.70
2022-09-01T05:25:54.726Z,21.80
2022-09-01T05:27:00.427Z,21.70
2022-09-01T05:28:03.307Z,21.60
2022-09-01T05:29:10.550Z,21.60
2022-09-01T05:30:13.090Z,21.60
2022-09-01T05:31:19.811Z,21.60
2022-09-01T05:32:25.929Z,21.60
2022-09-01T05:33:28.738Z,21.60
2022-09-01T05:34:33.177Z,21.60
2022-09-01T05:35:37.093Z,21.60
2022-09-01T05:36:41.875Z,21.70
2022-09-01T05:37:44.216Z,21.70
2022-09-01T05:38:48.329Z,21.70
2022-09-01T05:39:52.394Z,21.70
2022-09-01T05:41:00.681Z,21.70
2022-09-01T05:42:04.699Z,21.70
2022-09-01T05:43:12.554Z,21.80
2022-09-01T05:44:15.622Z,21.80
2022-09-01T05:45:20.371Z,21.80
2022-09-01T05:46:23.843Z,21.80
2022-09-01T05:47:26.310Z,21.80
2022-09-01T05:48:31.525Z,21.80
2022-09-01T05:49:33.739Z,21.80
2022-09-01T05:50:41.285Z,21.80
2022-09-01T05:51:46.035Z,21.70
2022-09-01T05:52:51.052Z,21.70
2022-09-01T05:53:56.439Z,21.50
2022-09-01T05:55:00.874Z,21.50
2022-09-01T05:56:07.856Z,21.60
2022-09-01T05:57:30.740Z,21.60
2022-09-01T05:59:56.782Z,21.70
2022-09-01T06:01:01.729Z,21.70
2022-09-01T06:02:08.767Z,21.70
2022-09-01T06:03:11.717Z,21.60
2022-09-01T06:04:17.383Z,21.60
2022-09-01T06:05:20.872Z,21.60
2022-09-01T06:06:26.510Z,21.60
2022-09-01T06:07:28.877Z,21.60
2022-09-01T06:08:33.318Z,21.70
2022-09-01T06:09:39.363Z,21.70
2022-09-01T06:10:42.003Z,21.70
2022-09-01T06:11:46.840Z,21.70
2022-09-01T06:12:53.966Z,21.70
2022-09-01T06:13:58.704Z,21.60
2022-09-01T06:15:01.711Z,21.60
2022-09-01T06:16:04.841Z,21.60
2022-09-01T06:17:10.034Z,21.60
2022-09-01T06:18:12.580Z,21.70
2022-09-01T06:19:24.117Z,21.70
2022-09-01T06:20:27.542Z,21.70
2022-09-01T06:21:29.713Z,21.70
2022-09-01T06:22:32.483Z,21.70
2022-09-01T06:23:36.010Z,21.70
2022-09-01T06:24:39.903Z,21.70
2022-09-01T06:25:46.723Z,21.70
2022-09-01T06:26:52.048Z,21.70
2022-09-01T06:27:54.239Z,21.70
2022-09-01T06:28:58.182Z,21.60
2022-09-01T06:30:01.725Z,21.60
2022-09-01T06:31:10.172Z,21.50
2022-09-01T06:32:13.067Z,21.60
2022-09-01T06:33:15.418Z,21.50
2022-09-01T06:34:22.850Z,21.40
2022-09-01T06:35:29.570Z,21.50
2022-09-01T06:36:35.158Z,21.50
2022-09-01T06:37:38.723Z,21.50
2022-09-01T06:38:42.999Z,21.60
2022-09-01T06:39:45.726Z,21.60
2022-09-01T06:40:48.499Z,21.60
2022-09-01T06:41:54.759Z,21.60
2022-09-01T06:43:07.857Z,21.70
2022-09-01T06:44:14.537Z,21.70
2022-09-01T06:45:23.416Z,21.70
2022-09-01T06:46:28.078Z,21.60
2022-09-01T06:47:31.708Z,21.70
2022-09-01T06:48:34.642Z,21.70
2022-09-01T06:49:41.085Z,21.70
2022-09-01T06:52:16.007Z,21.70
2022-09-01T06:54:43.993Z,21.60
2022-09-01T06:55:50.235Z,21.60
2022-09-01T06:56:53.515Z,21.70
2022-09-01T06:58:06.524Z,21.70
2022-09-01T06:59:10.073Z,21.80
2022-09-01T07:00:21.017Z,21.90
2022-09-01T07:01:27.524Z,22.00
2022-09-01T07:02:30.830Z,22.00
2022-09-01T07:04:12.744Z,22.10
2022-09-01T07:08:23.575Z,22.20
2022-09-01T07:09:49.665Z,22.30
2022-09-01T07:12:08.261Z,22.30
2022-09-01T07:14:18.201Z,22.30
2022-09-01T07:16:51.830Z,22.30
2022-09-01T07:18:06.926Z,22.30
2022-09-01T07:19:13.122Z,22.20
2022-09-01T07:20:23.929Z,22.20
2022-09-01T07:22:06.940Z,22.20
2022-09-01T07:23:07.623Z,22.30
2022-09-01T07:24:11.711Z,22.30
2022-09-01T07:25:20.608Z,22.40
2022-09-01T07:26:35.542Z,22.40
2022-09-01T07:27:40.617Z,22.40
2022-09-01T07:28:47.808Z,22.40
2022-09-01T07:29:54.040Z,22.40
2022-09-01T07:30:56.798Z,22.40
2022-09-01T07:42:31.733Z,22.60
2022-09-01T07:42:57.997Z,21.70
2022-09-01T07:42:59.098Z,22.60
2022-09-01T07:44:18.036Z,22.80
2022-09-01T07:45:59.251Z,22.80
2022-09-01T07:50:24.270Z,23.00
2022-09-01T07:52:35.893Z,23.10
2022-09-01T07:53:38.105Z,23.10
2022-09-01T07:54:45.488Z,23.20
2022-09-01T07:55:50.788Z,23.20
2022-09-01T07:56:55.453Z,23.20
2022-09-01T07:57:59.154Z,23.20
2022-09-01T07:59:03.333Z,23.30
2022-09-01T08:00:06.501Z,23.30
2022-09-01T08:01:18.996Z,23.30
2022-09-01T08:02:24.611Z,23.30
2022-09-01T08:03:27.145Z,23.30
2022-09-01T08:04:29.569Z,23.40
2022-09-01T08:05:32.983Z,23.40
2022-09-01T08:06:38.451Z,23.40
2022-09-01T08:07:57.404Z,23.40
2022-09-01T08:09:07.112Z,23.40
2022-09-01T08:10:20.119Z,23.40
2022-09-01T08:11:58.262Z,23.40
2022-09-01T08:12:56.215Z,23.40
2022-09-01T08:13:59.572Z,23.40
2022-09-01T08:16:27.826Z,23.50
2022-09-01T08:17:51.491Z,23.50
2022-09-01T08:18:56.354Z,23.50
2022-09-01T08:20:03.203Z,23.60
2022-09-01T08:21:28.798Z,23.60
2022-09-01T08:22:35.319Z,23.70
2022-09-01T08:23:45.458Z,23.70
2022-09-01T08:24:50.792Z,23.70
2022-09-01T08:25:53.553Z,23.70
2022-09-01T08:26:55.961Z,23.60
2022-09-01T08:28:01.361Z,23.60
2022-09-01T08:29:04.487Z,23.60
2022-09-01T08:30:13.899Z,23.60
2022-09-01T08:31:18.404Z,23.60
2022-09-01T08:32:22.457Z,23.60
2022-09-01T08:33:26.023Z,23.50
2022-09-01T08:34:28.543Z,23.50
2022-09-01T08:35:31.142Z,23.50
2022-09-01T08:36:33.628Z,23.50
2022-09-01T08:37:36.926Z,23.50
2022-09-01T08:38:39.941Z,23.50
2022-09-01T08:39:42.559Z,23.50
2022-09-01T08:40:56.252Z,23.50
2022-09-01T08:42:06.266Z,23.40
2022-09-01T08:43:20.057Z,23.20
2022-09-01T08:44:29.964Z,23.20
2022-09-01T08:45:37.732Z,23.20
2022-09-01T08:46:42.219Z,23.20
2022-09-01T08:48:20.298Z,23.20
2022-09-01T08:49:28.305Z,23.20
2022-09-01T08:50:45.245Z,23.10
2022-09-01T08:52:25.619Z,23.10
2022-09-01T08:53:42.679Z,23.10
2022-09-01T08:54:53.696Z,23.20
2022-09-01T08:55:58.518Z,23.20
2022-09-01T08:57:02.051Z,23.20
2022-09-01T08:58:24.615Z,23.20
2022-09-01T08:59:50.171Z,23.20
2022-09-01T09:01:09.457Z,23.20
2022-09-01T09:02:20.685Z,23.30
2022-09-01T09:03:25.766Z,23.30
2022-09-01T09:04:40.904Z,23.40
2022-09-01T09:06:04.249Z,23.40
2022-09-01T09:07:21.822Z,23.40
2022-09-01T09:08:33.527Z,23.50
2022-09-01T09:09:58.129Z,23.50
2022-09-01T09:11:18.851Z,23.60
2022-09-01T09:12:23.987Z,23.60
2022-09-01T09:13:43.031Z,23.70
2022-09-01T09:15:04.035Z,23.60
2022-09-01T09:16:11.975Z,23.60
2022-09-01T09:17:15.850Z,23.50
2022-09-01T09:18:40.632Z,23.50
2022-09-01T09:19:44.373Z,23.50
2022-09-01T09:20:46.883Z,23.50
2022-09-01T09:21:50.167Z,23.60
2022-09-01T09:22:53.479Z,23.60
2022-09-01T09:24:00.879Z,23.60
2022-09-01T09:25:03.110Z,23.60
2022-09-01T09:26:07.937Z,23.50
2022-09-01T09:27:11.166Z,23.60
2022-09-01T09:28:15.291Z,23.50
2022-09-01T09:29:18.618Z,23.50
2022-09-01T09:30:26.507Z,23.50
2022-09-01T09:31:33.918Z,23.50
2022-09-01T09:33:15.333Z,23.60
2022-09-01T09:34:18.742Z,23.60
2022-09-01T09:35:20.920Z,23.60
2022-09-01T09:36:29.446Z,23.60
2022-09-01T09:37:31.744Z,23.60
2022-09-01T09:38:33.971Z,23.70
2022-09-01T09:39:37.806Z,23.70
2022-09-01T09:41:16.107Z,23.70
2022-09-01T09:42:18.044Z,23.60
2022-09-01T09:43:20.677Z,23.60
2022-09-01T09:44:26.899Z,23.60
2022-09-01T09:45:34.364Z,23.50
2022-09-01T09:46:43.632Z,23.50
2022-09-01T09:47:49.598Z,23.50
2022-09-01T09:49:10.868Z,23.50
2022-09-01T09:50:20.074Z,23.50
2022-09-01T09:51:22.789Z,23.60
2022-09-01T09:52:25.004Z,23.60
2022-09-01T09:53:28.682Z,23.60
2022-09-01T09:54:34.645Z,23.60
2022-09-01T09:55:36.979Z,23.60
2022-09-01T09:56:41.600Z,23.70
2022-09-01T09:57:45.028Z,23.70
2022-09-01T09:58:48.138Z,23.70
2022-09-01T10:00:01.416Z,23.80
2022-09-01T10:01:14.674Z,23.80
2022-09-01T10:02:36.548Z,23.90
2022-09-01T10:03:42.311Z,23.80
2022-09-01T10:04:44.618Z,23.90
2022-09-01T10:05:53.944Z,23.90
2022-09-01T10:06:56.254Z,23.90
2022-09-01T10:07:58.610Z,23.90
2022-09-01T10:09:05.517Z,23.90
2022-09-01T10:10:29.337Z,23.90
2022-09-01T10:11:40.869Z,24.00
2022-09-01T10:12:43.968Z,24.00
2022-09-01T10:13:46.209Z,24.00
2022-09-01T10:15:12.808Z,24.00
2022-09-01T10:16:22.060Z,24.00
2022-09-01T10:17:35.912Z,24.00
2022-09-01T10:18:40.458Z,24.00
2022-09-01T10:19:49.533Z,24.10
2022-09-01T10:20:55.250Z,24.00
2022-09-01T10:21:57.505Z,24.10
2022-09-01T10:23:03.787Z,24.10
2022-09-01T10:24:31.003Z,24.10
2022-09-01T10:25:34.843Z,24.10
2022-09-01T10:26:38.784Z,24.00
2022-09-01T10:27:46.274Z,24.10
2022-09-01T10:28:54.654Z,24.10
2022-09-01T10:30:12.505Z,24.10
2022-09-01T10:31:15.953Z,24.20
2022-09-01T10:32:35.213Z,24.20
2022-09-01T10:33:39.801Z,24.20
2022-09-01T10:34:43.488Z,24.20
2022-09-01T10:35:48.049Z,24.20
2022-09-01T10:36:56.815Z,24.20
2022-09-01T10:38:00.449Z,24.30
2022-09-01T10:39:08.836Z,24.20
2022-09-01T10:40:14.852Z,24.30
2022-09-01T10:41:35.892Z,24.30
2022-09-01T10:42:39.029Z,24.30
2022-09-01T10:43:48.829Z,24.30
2022-09-01T10:44:58.299Z,24.30
2022-09-01T10:46:06.054Z,24.20
2022-09-01T10:47:24.157Z,24.30
2022-09-01T10:48:31.187Z,24.30
2022-09-01T10:49:34.755Z,24.20
2022-09-01T10:50:37.140Z,24.20
2022-09-01T10:51:50.415Z,24.20
2022-09-01T10:52:55.790Z,24.20
2022-09-01T10:54:02.173Z,24.20
2022-09-01T10:55:06.349Z,24.20
2022-09-01T10:56:18.759Z,24.20
2022-09-01T10:57:42.324Z,24.20
2022-09-01T11:00:35.108Z,24.00
2022-09-01T11:01:48.323Z,24.00
2022-09-01T11:04:32.490Z,24.10
2022-09-01T11:06:05.103Z,24.10
2022-09-01T11:07:43.772Z,24.10
2022-09-01T11:08:51.062Z,24.00
2022-09-01T11:10:12.142Z,24.00
2022-09-01T11:11:40.212Z,24.00
2022-09-01T11:12:57.631Z,24.00
2022-09-01T11:14:00.185Z,24.00
2022-09-01T11:15:22.600Z,24.00
2022-09-01T11:17:50.190Z,24.00
2022-09-01T11:18:52.722Z,24.10
2022-09-01T11:19:58.029Z,24.10
2022-09-01T11:21:25.768Z,24.10
2022-09-01T11:22:32.714Z,24.20
2022-09-01T11:23:35.124Z,24.20
2022-09-01T11:24:38.315Z,24.20
2022-09-01T11:25:45.079Z,24.20
2022-09-01T11:26:48.559Z,24.20
2022-09-01T11:27:51.779Z,24.20
2022-09-01T11:28:53.972Z,24.20
2022-09-01T11:29:57.240Z,24.20
2022-09-01T11:31:01.635Z,24.20
2022-09-01T11:32:05.212Z,24.20
2022-09-01T11:33:28.137Z,24.20
2022-09-01T11:34:31.479Z,24.20
2022-09-01T11:35:33.702Z,24.20
2022-09-01T11:36:48.584Z,24.20
2022-09-01T11:37:52.650Z,24.20
2022-09-01T11:39:06.389Z,24.20
2022-09-01T11:40:10.339Z,24.10
2022-09-01T11:41:28.909Z,24.10
2022-09-01T11:42:36.073Z,24.20
2022-09-01T11:43:39.507Z,24.20
2022-09-01T11:44:54.106Z,24.20
2022-09-01T11:46:06.995Z,24.20
2022-09-01T11:47:17.066Z,24.20
2022-09-01T11:48:19.395Z,24.20
2022-09-01T11:49:29.461Z,24.20
2022-09-01T11:50:33.619Z,24.20
2022-09-01T11:51:45.696Z,24.20
2022-09-01T11:52:55.395Z,24.20
2022-09-01T11:54:00.486Z,24.10
2022-09-01T11:55:03.776Z,24.10
2022-09-01T11:56:15.337Z,24.20
2022-09-01T11:57:37.810Z,24.20
2022-09-01T11:58:41.753Z,24.30
2022-09-01T11:59:44.010Z,24.30
2022-09-01T12:00:47.523Z,24.30
2022-09-01T12:01:56.462Z,24.30
2022-09-01T12:03:00.121Z,24.30
2022-09-01T12:04:39.969Z,24.40
2022-09-01T12:05:42.236Z,24.40
2022-09-01T12:06:51.304Z,24.40
2022-09-01T12:07:54.124Z,24.40
2022-09-01T12:09:02.211Z,24.50
2022-09-01T12:10:04.704Z,24.50
2022-09-01T12:11:11.487Z,24.50
2022-09-01T12:12:30.711Z,24.50
2022-09-01T12:13:33.073Z,24.50
2022-09-01T12:15:02.082Z,24.50
2022-09-01T12:16:18.292Z,24.50
2022-09-01T12:17:21.334Z,24.40
2022-09-01T12:18:27.797Z,24.50
2022-09-01T12:19:32.874Z,24.50
2022-09-01T12:20:38.506Z,24.50
2022-09-01T12:21:45.407Z,24.60
2022-09-01T12:22:48.021Z,24.50
2022-09-01T12:23:50.551Z,24.60
2022-09-01T12:24:54.761Z,24.60
2022-09-01T12:25:58.876Z,24.60
2022-09-01T12:27:01.223Z,24.70
2022-09-01T12:28:04.458Z,24.70
2022-09-01T12:29:07.494Z,24.70
2022-09-01T12:30:10.217Z,24.70
2022-09-01T12:31:14.689Z,24.80
2022-09-01T12:32:17.219Z,24.80
2022-09-01T12:33:23.877Z,24.80
2022-09-01T12:34:29.417Z,24.80
2022-09-01T12:35:31.676Z,24.90
2022-09-01T12:36:35.174Z,24.80
2022-09-01T12:37:37.832Z,24.80
2022-09-01T12:38:40.066Z,24.90
2022-09-01T12:39:44.804Z,24.90
2022-09-01T12:40:49.007Z,24.90
2022-09-01T12:42:06.550Z,24.90
2022-09-01T12:43:08.788Z,24.90
2022-09-01T12:44:30.354Z,24.90
2022-09-01T12:45:50.801Z,25.00
2022-09-01T12:46:53.308Z,25.00
2022-09-01T12:47:55.842Z,25.00
2022-09-01T12:50:25.817Z,25.00
2022-09-01T12:51:31.517Z,25.00
2022-09-01T12:52:34.870Z,25.00
2022-09-01T12:53:37.231Z,25.00
2022-09-01T12:54:39.919Z,25.00
2022-09-01T12:55:53.899Z,25.00
2022-09-01T12:56:56.590Z,25.00
2022-09-01T12:58:09.196Z,25.00
2022-09-01T12:59:26.294Z,25.00
2022-09-01T13:01:01.974Z,25.00
2022-09-01T13:02:23.428Z,25.00
2022-09-01T13:03:27.697Z,25.00
2022-09-01T13:04:34.197Z,24.90
2022-09-01T13:05:47.160Z,24.90
2022-09-01T13:06:50.122Z,25.00
2022-09-01T13:07:53.724Z,25.00
2022-09-01T13:08:57.209Z,25.00
2022-09-01T13:09:59.603Z,25.00
2022-09-01T13:11:09.108Z,25.00
2022-09-01T13:12:17.591Z,25.00
2022-09-01T13:13:21.166Z,25.00
2022-09-01T13:14:25.545Z,24.90
2022-09-01T13:15:27.942Z,25.00
2022-09-01T13:16:30.258Z,24.90
2022-09-01T13:17:32.632Z,25.00
2022-09-01T13:19:10.413Z,25.00
2022-09-01T13:19:57.207Z,24.90
2022-09-01T13:21:00.669Z,24.90
2022-09-01T13:22:03.052Z,24.90
2022-09-01T13:23:05.296Z,24.90
2022-09-01T13:24:07.626Z,24.80
2022-09-01T13:25:10.876Z,24.70
2022-09-01T13:26:13.171Z,24.70
2022-09-01T13:27:24.129Z,24.70
2022-09-01T13:28:26.975Z,24.80
2022-09-01T13:29:29.248Z,24.80
2022-09-01T13:30:31.573Z,24.80
2022-09-01T13:31:35.501Z,24.80
2022-09-01T13:33:19.325Z,24.80
2022-09-01T13:34:22.729Z,24.90
2022-09-01T13:35:24.490Z,24.90
2022-09-01T13:36:45.099Z,24.90
2022-09-01T13:37:49.421Z,24.90
2022-09-01T13:38:52.056Z,25.00
2022-09-01T13:39:58.134Z,25.00
2022-09-01T13:41:02.012Z,25.00
2022-09-01T13:42:04.338Z,25.00
2022-09-01T13:43:06.923Z,25.10
2022-09-01T13:44:10.475Z,25.10
2022-09-01T13:45:14.189Z,25.10
2022-09-01T13:46:16.950Z,25.10
2022-09-01T13:47:34.577Z,25.00
2022-09-01T13:50:09.949Z,25.00
2022-09-01T13:51:14.858Z,25.00
2022-09-01T13:52:17.710Z,25.00
2022-09-01T13:53:20.076Z,25.00
2022-09-01T13:54:22.567Z,25.00
2022-09-01T13:55:26.762Z,25.10
2022-09-01T13:56:29.184Z,25.10
2022-09-01T13:57:36.154Z,25.10
2022-09-01T13:58:38.976Z,25.10
2022-09-01T13:59:41.930Z,25.20
2022-09-01T14:00:46.312Z,25.20
2022-09-01T14:01:48.977Z,25.20
2022-09-01T14:02:53.267Z,25.10
2022-09-01T14:04:00.125Z,25.20
2022-09-01T14:05:02.754Z,25.20
2022-09-01T14:06:06.141Z,25.20
2022-09-01T14:07:08.432Z,25.20
2022-09-01T14:08:12.125Z,25.10
2022-09-01T14:09:17.605Z,25.20
2022-09-01T14:10:20.861Z,25.20
2022-09-01T14:11:23.391Z,25.10
2022-09-01T14:12:25.974Z,25.10
2022-09-01T14:13:28.353Z,25.10
2022-09-01T14:15:55.188Z,25.10
2022-09-01T14:16:57.523Z,25.10
2022-09-01T14:18:00.386Z,25.10
2022-09-01T14:19:02.698Z,25.10
2022-09-01T14:20:06.304Z,25.00
2022-09-01T14:21:15.393Z,25.00
2022-09-01T14:22:17.702Z,25.00
2022-09-01T14:23:20.251Z,25.00
2022-09-01T14:24:22.676Z,25.10
2022-09-01T14:25:25.390Z,25.10
2022-09-01T14:26:27.994Z,25.00
2022-09-01T14:27:30.523Z,25.10
2022-09-01T14:28:32.715Z,25.10
2022-09-01T14:29:36.396Z,25.10
2022-09-01T14:30:40.222Z,25.10
2022-09-01T14:31:43.404Z,25.10
2022-09-01T14:32:45.951Z,25.10
2022-09-01T14:33:49.075Z,25.20
2022-09-01T14:34:51.293Z,25.20
2022-09-01T14:35:54.309Z,25.10
2022-09-01T14:36:57.780Z,25.10
2022-09-01T14:38:00.861Z,25.10
2022-09-01T14:39:03.228Z,25.20
2022-09-01T14:40:06.672Z,25.20
2022-09-01T14:41:08.940Z,25.20
2022-09-01T14:42:11.737Z,25.20
2022-09-01T14:43:14.336Z,25.20
2022-09-01T14:44:16.691Z,25.20
2022-09-01T14:45:20.393Z,25.20
2022-09-01T14:46:23.178Z,25.20
2022-09-01T14:47:25.904Z,25.20
2022-09-01T14:48:28.101Z,25.20
2022-09-01T14:49:33.497Z,25.20
2022-09-01T14:50:40.008Z,25.20
2022-09-01T14:53:04.398Z,25.30